Time;durP1;ratioP1;P1;durP2;ratioP2;P2;SDS_P1;SDS_P2;PMS_P1;PMS_P2;Temp;Humidity;BMP_temperature;BMP_pressure;BME280_temperature;BME280_humidity;BME280_pressure;Samples;Min_cycle;Max_cycle;Signal;HPM_P1;HPM_P2
2021/01/28 17:15:47;;;;;;;1999.90;999.90;;;;;;;1.31;96.14;96681.09;4894804;28;20092;-65
2021/01/28 17:18:13;;;;;;;1999.90;999.90;;;;;;;1.46;95.14;96679.13;4892565;29;20468;-65
2021/01/28 17:20:39;;;;;;;1999.90;999.90;;;;;;;1.54;94.89;96678.41;4892153;29;20052;-65
2021/01/28 17:23:07;;;;;;;1999.90;999.90;;;;;;;1.40;96.00;96676.53;4890955;29;20523;-65
2021/01/28 17:25:34;;;;;;;1999.90;999.90;;;;;;;1.44;95.71;96684.88;4892133;29;20057;-65
2021/01/28 17:28:00;;;;;;;1999.90;999.90;;;;;;;1.21;95.89;96676.66;4891270;29;20059;-65
2021/01/28 17:30:28;;;;;;;1999.90;999.90;;;;;;;1.17;97.04;96677.59;4892011;29;20063;-65
2021/01/28 17:32:55;;;;;;;1999.90;999.90;;;;;;;1.30;97.33;96682.19;4891242;29;20053;-65
2021/01/28 17:35:26;;;;;;;1999.90;999.90;;;;;;;1.28;96.67;96676.25;4891774;29;20456;-65
2021/01/28 17:37:52;;;;;;;1999.90;999.90;;;;;;;1.25;97.76;96676.88;4888807;29;20048;-65
2021/01/28 17:40:18;;;;;;;1999.90;999.90;;;;;;;1.43;96.64;96671.56;4892143;29;20474;-65
2021/01/28 17:42:44;;;;;;;1999.90;999.90;;;;;;;1.35;96.77;96673.91;4891333;29;20077;-66
2021/01/28 17:45:13;;;;;;;1999.90;999.90;;;;;;;1.46;96.96;96668.22;4890382;29;20060;-65
2021/01/28 17:47:39;;;;;;;1999.90;999.90;;;;;;;1.56;95.75;96665.25;4888912;29;20049;-66
2021/01/28 17:50:08;;;;;;;1999.90;999.90;;;;;;;1.48;95.62;96666.81;4891003;29;20515;-66
2021/01/28 17:52:34;;;;;;;1999.90;999.90;;;;;;;1.44;97.36;96667.75;4888869;29;20068;-66
2021/01/28 17:55:02;;;;;;;1999.90;999.90;;;;;;;1.36;96.69;96666.56;4891263;29;20068;-66
2021/01/28 17:57:31;;;;;;;1999.90;999.90;;;;;;;1.57;96.40;96664.16;4891802;29;20057;-66
2021/01/28 17:59:57;;;;;;;1999.90;999.90;;;;;;;1.55;96.28;96663.69;4891541;29;20229;-66
2021/01/28 18:02:23;;;;;;;1999.90;999.90;;;;;;;1.56;96.50;96663.38;4891099;29;20555;-66
2021/01/28 18:04:49;;;;;;;1999.90;999.90;;;;;;;1.82;95.64;96656.50;4893680;29;20067;-66
2021/01/28 18:07:15;;;;;;;1999.90;999.90;;;;;;;1.72;95.65;96669.25;4891027;29;20299;-66
2021/01/28 18:09:42;;;;;;;1999.90;999.90;;;;;;;1.55;95.87;96666.41;4891332;29;20053;-66
2021/01/28 18:12:08;;;;;;;1999.90;999.90;;;;;;;1.72;95.85;96669.25;4890941;29;20414;-66
2021/01/28 18:14:38;;;;;;;1999.90;999.90;;;;;;;1.47;95.81;96667.91;4888417;29;20448;-66
2021/01/28 18:17:06;;;;;;;1999.90;999.90;;;;;;;1.54;96.05;96667.50;4872734;29;20073;-66
2021/01/28 18:19:33;;;;;;;1999.90;999.90;;;;;;;1.45;97.07;96667.44;4874111;29;20306;-66
2021/01/28 18:22:01;;;;;;;1999.90;999.90;;;;;;;1.52;97.57;96662.38;4868071;29;20106;-64
2021/01/28 18:24:27;;;;;;;1999.90;999.90;;;;;;;1.68;96.82;96668.28;4874979;29;20128;-64
2021/01/28 18:26:53;;;;;;;1999.90;999.90;;;;;;;1.60;97.03;96665.47;4877068;29;20057;-65
2021/01/28 18:29:19;;;;;;;1999.90;999.90;;;;;;;1.67;96.27;96665.84;4870637;29;20060;-66
2021/01/28 18:31:45;;;;;;;1999.90;999.90;;;;;;;1.54;96.44;96668.31;4865102;29;20108;-66
2021/01/28 18:34:12;;;;;;;1999.90;999.90;;;;;;;1.51;97.08;96673.56;4873056;29;20060;-66
2021/01/28 18:36:38;;;;;;;1999.90;999.90;;;;;;;1.59;97.13;96672.81;4871705;29;20113;-66
2021/01/28 18:39:05;;;;;;;1999.90;999.90;;;;;;;1.70;96.90;96670.69;4872011;29;20086;-65
2021/01/28 18:41:32;;;;;;;1999.90;999.90;;;;;;;1.63;96.34;96673.03;4871496;29;20482;-66
2021/01/28 18:43:58;;;;;;;1999.90;999.90;;;;;;;1.72;96.15;96674.69;4869699;29;20734;-66
2021/01/28 18:46:24;;;;;;;1999.90;999.90;;;;;;;1.82;95.58;96673.66;4869239;29;20060;-66
2021/01/28 18:48:53;;;;;;;1999.90;999.90;;;;;;;1.64;96.20;96664.53;4851722;29;20080;-66
2021/01/28 18:51:21;;;;;;;1999.90;999.90;;;;;;;2.01;95.98;96670.75;4865050;29;20059;-66
2021/01/28 18:53:49;;;;;;;1999.90;999.90;;;;;;;1.85;94.89;96673.03;4871292;29;20049;-66
2021/01/28 18:56:15;;;;;;;1999.90;999.90;;;;;;;1.91;95.78;96665.53;4872341;29;20189;-66
2021/01/28 18:58:42;;;;;;;1999.90;999.90;;;;;;;1.77;95.90;96665.59;4871741;29;20065;-66
2021/01/28 19:01:09;;;;;;;1999.90;999.90;;;;;;;1.65;95.92;96655.22;4872258;29;20049;-66
2021/01/28 19:03:36;;;;;;;1999.90;999.90;;;;;;;1.55;96.45;96652.78;4870899;29;20067;-66
2021/01/28 19:06:03;;;;;;;1999.90;999.90;;;;;;;1.42;97.99;96650.91;4865322;29;20538;-66
2021/01/28 19:08:32;;;;;;;1999.90;999.90;;;;;;;1.50;97.15;96652.88;4871579;29;20052;-66
2021/01/28 19:11:01;;;;;;;1999.90;999.90;;;;;;;1.55;97.63;96641.88;4869257;29;20049;-67
2021/01/28 19:13:27;;;;;;;1999.90;999.90;;;;;;;1.63;96.88;96638.41;4869213;29;20061;-66
2021/01/28 19:15:54;;;;;;;1999.90;999.90;;;;;;;1.60;97.36;96644.47;4878560;29;20129;-65
2021/01/28 19:18:20;;;;;;;1999.90;999.90;;;;;;;1.55;97.22;96642.69;4890946;29;20109;-67
2021/01/28 19:20:47;;;;;;;1999.90;999.90;;;;;;;1.76;96.35;96639.47;4888794;29;20087;-67
2021/01/28 19:23:15;;;;;;;1999.90;999.90;;;;;;;1.83;96.31;96641.75;4882396;29;20056;-67
2021/01/28 19:25:43;;;;;;;1999.90;999.90;;;;;;;2.10;95.06;96638.09;4890181;29;20132;-66
2021/01/28 19:28:10;;;;;;;1999.90;999.90;;;;;;;2.00;95.17;96644.59;4890933;29;20049;-66
2021/01/28 19:30:37;;;;;;;1999.90;999.90;;;;;;;2.03;94.79;96635.78;4890336;29;20133;-66
2021/01/28 19:33:03;;;;;;;1999.90;999.90;;;;;;;1.94;95.36;96638.44;4890048;29;20112;-66
2021/01/28 19:35:36;;;;;;;1999.90;999.90;;;;;;;2.05;94.71;96641.72;4894444;29;20056;-67
2021/01/28 19:38:04;;;;;;;1999.90;999.90;;;;;;;2.11;94.68;96637.78;4893510;29;20060;-67
2021/01/28 19:40:31;;;;;;;1999.90;999.90;;;;;;;1.86;95.00;96641.94;4894115;29;20464;-66
2021/01/28 19:42:58;;;;;;;1999.90;999.90;;;;;;;1.86;95.00;96644.66;4893352;29;20116;-67
2021/01/28 19:45:27;;;;;;;1999.90;999.90;;;;;;;1.82;96.06;96640.16;4893892;29;20109;-66
2021/01/28 19:47:54;;;;;;;1999.90;999.90;;;;;;;1.94;95.81;96641.19;4893496;29;20051;-66
2021/01/28 19:50:27;;;;;;;1999.90;999.90;;;;;;;2.03;95.26;96638.50;4890800;29;20064;-66
2021/01/28 19:52:55;;;;;;;1999.90;999.90;;;;;;;2.12;93.99;96646.75;4893744;29;20087;-67
2021/01/28 19:55:23;;;;;;;1999.90;999.90;;;;;;;2.10;94.34;96638.09;4893706;29;20512;-66
2021/01/28 19:57:50;;;;;;;1999.90;999.90;;;;;;;2.03;94.37;96626.81;4893470;29;20061;-67
2021/01/28 20:00:20;;;;;;;1999.90;999.90;;;;;;;1.88;95.12;96628.81;4894846;29;20068;-67
2021/01/28 20:02:47;;;;;;;1999.90;999.90;;;;;;;1.88;95.69;96628.00;4898972;29;20063;-66
2021/01/28 20:05:14;;;;;;;1999.90;999.90;;;;;;;1.89;95.55;96624.13;4895431;29;20116;-66
2021/01/28 20:07:40;;;;;;;1999.90;999.90;;;;;;;1.77;96.23;96627.44;4894210;29;20148;-65
2021/01/28 20:10:10;;;;;;;1999.90;999.90;;;;;;;1.81;96.11;96628.44;4893452;29;20421;-66
2021/01/28 20:12:40;;;;;;;1999.90;999.90;;;;;;;1.96;95.67;96621.78;4893392;29;20136;-66
2021/01/28 20:15:09;;;;;;;1999.90;999.90;;;;;;;1.89;95.50;96624.97;4885516;29;20056;-66
2021/01/28 20:17:35;;;;;;;1999.90;999.90;;;;;;;1.97;95.37;96628.06;4885865;29;20057;-66
2021/01/28 20:20:04;;;;;;;1999.90;999.90;;;;;;;1.97;95.30;96634.31;4893223;29;20155;-66
2021/01/28 20:22:31;;;;;;;1999.90;999.90;;;;;;;1.96;95.21;96629.97;4893305;29;20519;-66
2021/01/28 20:24:57;;;;;;;1999.90;999.90;;;;;;;1.68;95.90;96630.13;4892800;29;20068;-66
2021/01/28 20:27:24;;;;;;;1999.90;999.90;;;;;;;1.96;96.05;96632.69;4892906;29;20056;-66
2021/01/28 20:29:50;;;;;;;1999.90;999.90;;;;;;;1.67;96.33;96641.34;4892733;29;20060;-66
2021/01/28 20:32:16;;;;;;;1999.90;999.90;;;;;;;1.74;96.59;96631.59;4893384;29;20125;-67
2021/01/28 20:34:43;;;;;;;1999.90;999.90;;;;;;;1.88;96.29;96625.28;4889568;29;20573;-67
2021/01/28 20:37:09;;;;;;;1999.90;999.90;;;;;;;2.07;95.64;96630.50;4891602;29;20044;-66
2021/01/28 20:39:35;;;;;;;1999.90;999.90;;;;;;;2.08;94.72;96627.50;4891644;29;20056;-66
2021/01/28 20:42:01;;;;;;;1999.90;999.90;;;;;;;2.03;95.25;96641.25;4892522;29;20123;-66
2021/01/28 20:44:27;;;;;;;1999.90;999.90;;;;;;;1.72;96.41;96641.19;4892953;29;20389;-65
2021/01/28 20:46:53;;;;;;;1999.90;999.90;;;;;;;1.73;97.31;96640.88;4892764;29;20060;-65
2021/01/28 20:49:20;;;;;;;1999.90;999.90;;;;;;;1.82;96.19;96640.16;4892650;29;20544;-65
2021/01/28 20:51:46;;;;;;;1999.90;999.90;;;;;;;1.94;96.04;96643.13;4892428;29;20059;-65
2021/01/28 20:54:12;;;;;;;1999.90;999.90;;;;;;;1.62;97.39;96644.97;4892727;29;20052;-65
2021/01/28 20:56:38;;;;;;;1999.90;999.90;;;;;;;1.59;97.50;96642.84;4892951;29;20108;-66
2021/01/28 20:59:04;;;;;;;1999.90;999.90;;;;;;;1.68;98.04;96641.03;4892058;29;20064;-65
2021/01/28 21:01:30;;;;;;;1999.90;999.90;;;;;;;1.70;97.92;96646.16;4893184;29;20425;-65
2021/01/28 21:03:57;;;;;;;1999.90;999.90;;;;;;;1.57;98.84;96643.16;4896183;29;20363;-65
2021/01/28 21:06:23;;;;;;;1999.90;999.90;;;;;;;2.08;97.07;96637.56;4897575;29;20053;-66
2021/01/28 21:08:49;;;;;;;1999.90;999.90;;;;;;;1.70;96.73;96644.22;4891765;29;20104;-66
2021/01/28 21:11:15;;;;;;;1999.90;999.90;;;;;;;1.67;97.41;96644.06;4890565;29;20058;-66
2021/01/28 21:13:41;;;;;;;1999.90;999.90;;;;;;;2.01;96.66;96642.66;4892278;29;20116;-65
2021/01/28 21:16:08;;;;;;;1999.90;999.90;;;;;;;1.66;97.66;96643.22;4891745;29;20068;-65
2021/01/28 21:18:35;;;;;;;1999.90;999.90;;;;;;;1.70;97.64;96643.44;4891794;29;20060;-64
2021/01/28 21:21:01;;;;;;;1999.90;999.90;;;;;;;1.97;96.72;96642.50;4891734;29;20082;-64
2021/01/28 21:23:27;;;;;;;1999.90;999.90;;;;;;;1.83;96.44;96644.47;4891607;29;20063;-64
2021/01/28 21:25:54;;;;;;;1999.90;999.90;;;;;;;1.61;97.61;96637.09;4892218;29;20057;-64
2021/01/28 21:28:20;;;;;;;1999.90;999.90;;;;;;;1.54;98.86;96645.72;4893107;29;20056;-64
2021/01/28 21:30:50;;;;;;;1999.90;999.90;;;;;;;1.64;98.26;96640.03;4894980;29;20105;-66
2021/01/28 21:33:17;;;;;;;1999.90;999.90;;;;;;;1.58;97.73;96642.06;4884470;29;20475;-65
2021/01/28 21:35:44;;;;;;;1999.90;999.90;;;;;;;1.35;99.02;96646.66;4891656;29;20101;-65
2021/01/28 21:38:10;;;;;;;1999.90;999.90;;;;;;;1.46;99.11;96643.72;4892017;29;20049;-65
2021/01/28 21:40:39;;;;;;;1999.90;999.90;;;;;;;1.72;98.46;96646.66;4891604;29;20056;-65
2021/01/28 21:43:05;;;;;;;1999.90;999.90;;;;;;;1.61;98.00;96643.38;4892078;29;20389;-65
2021/01/28 21:45:33;;;;;;;1999.90;999.90;;;;;;;1.74;96.83;96639.78;4892185;29;20450;-65
2021/01/28 21:48:01;;;;;;;1999.90;999.90;;;;;;;1.64;97.83;96645.47;4891370;29;20135;-65
2021/01/28 21:50:30;;;;;;;1999.90;999.90;;;;;;;1.43;98.95;96660.66;4892179;29;20056;-65
2021/01/28 21:52:57;;;;;;;1999.90;999.90;;;;;;;1.67;97.98;96647.56;4891711;29;20052;-64
2021/01/28 21:55:26;;;;;;;1999.90;999.90;;;;;;;1.50;98.11;96652.88;4890590;29;20060;-65
2021/01/28 21:57:57;;;;;;;1999.90;999.90;;;;;;;1.60;98.16;96651.84;4891462;29;20052;-64
2021/01/28 22:00:24;;;;;;;1999.90;999.90;;;;;;;1.52;98.26;96653.38;4892689;29;20150;-64
2021/01/28 22:02:51;;;;;;;1999.90;999.90;;;;;;;1.60;98.21;96660.81;4891141;29;20056;-65
2021/01/28 22:05:18;;;;;;;1999.90;999.90;;;;;;;1.58;98.15;96660.34;4891433;29;20056;-65
2021/01/28 22:07:44;;;;;;;1999.90;999.90;;;;;;;1.71;98.46;96659.47;4891646;29;20336;-64
2021/01/28 22:10:11;;;;;;;1999.90;999.90;;;;;;;1.69;97.47;96658.97;4891635;29;20068;-64
2021/01/28 22:12:38;;;;;;;1999.90;999.90;;;;;;;1.87;97.20;96656.38;4890810;29;20408;-64
2021/01/28 22:15:07;;;;;;;1999.90;999.90;;;;;;;1.96;95.89;96651.78;4884295;29;20065;-64
2021/01/28 22:17:35;;;;;;;1999.90;999.90;;;;;;;2.03;95.70;96646.69;4872620;29;20201;-64
2021/01/28 22:20:01;;;;;;;1999.90;999.90;;;;;;;1.81;96.24;96652.16;4872244;29;20501;-64
2021/01/28 22:22:27;;;;;;;1999.90;999.90;;;;;;;1.70;97.48;96655.13;4871924;29;20550;-65
2021/01/28 22:24:54;;;;;;;1999.90;999.90;;;;;;;1.74;97.82;96653.41;4886722;29;20067;-66
2021/01/28 22:27:20;;;;;;;1999.90;999.90;;;;;;;1.84;96.72;96660.50;4872608;29;20089;-66
2021/01/28 22:29:46;;;;;;;1999.90;999.90;;;;;;;1.88;96.78;96658.00;4871796;29;20057;-65
2021/01/28 22:32:12;;;;;;;1999.90;999.90;;;;;;;1.69;96.81;96656.22;4871445;29;20716;-65
2021/01/28 22:34:39;;;;;;;1999.90;999.90;;;;;;;1.90;96.84;96656.53;4871771;29;20080;-65
2021/01/28 22:37:05;;;;;;;1999.90;999.90;;;;;;;2.12;95.71;96660.38;4872089;29;20068;-65
2021/01/28 22:39:31;;;;;;;1999.90;999.90;;;;;;;2.11;94.92;96645.94;4871609;29;20061;-66
2021/01/28 22:41:57;;;;;;;1999.90;999.90;;;;;;;2.19;95.14;96654.47;4872122;29;20060;-65
2021/01/28 22:44:23;;;;;;;1999.90;999.90;;;;;;;2.29;95.00;96654.19;4869917;29;20057;-65
2021/01/28 22:46:49;;;;;;;1999.90;999.90;;;;;;;2.21;94.37;96654.97;4871612;29;20511;-65
2021/01/28 22:49:16;;;;;;;1999.90;999.90;;;;;;;2.21;93.92;96652.25;4878309;29;20205;-65
2021/01/28 22:51:42;;;;;;;1999.90;999.90;;;;;;;2.11;94.81;96651.41;4872989;29;20061;-66
2021/01/28 22:54:08;;;;;;;1999.90;999.90;;;;;;;2.26;94.61;96658.38;4876058;29;20517;-65
2021/01/28 22:56:34;;;;;;;1999.90;999.90;;;;;;;2.15;94.18;96650.78;4875081;29;20557;-64
2021/01/28 22:59:00;;;;;;;1999.90;999.90;;;;;;;2.13;95.07;96653.00;4871943;29;20049;-66
2021/01/28 23:01:27;;;;;;;1999.90;999.90;;;;;;;2.05;94.77;96644.44;4872032;29;20460;-64
2021/01/28 23:03:53;;;;;;;1999.90;999.90;;;;;;;2.15;94.32;96642.59;4871439;29;20149;-65
2021/01/28 23:06:19;;;;;;;1999.90;999.90;;;;;;;2.22;94.51;96648.38;4886572;29;20057;-65
2021/01/28 23:08:46;;;;;;;1999.90;999.90;;;;;;;2.14;94.42;96654.63;4870726;29;20105;-65
2021/01/28 23:11:13;;;;;;;1999.90;999.90;;;;;;;1.97;95.32;96653.41;4871799;29;20052;-65
2021/01/28 23:13:40;;;;;;;1999.90;999.90;;;;;;;2.18;95.17;96663.78;4874875;29;20067;-65
2021/01/28 23:16:08;;;;;;;1999.90;999.90;;;;;;;2.23;94.52;96678.09;4871350;29;20374;-65
2021/01/28 23:18:34;;;;;;;1999.90;999.90;;;;;;;2.20;94.31;96669.72;4874546;29;20053;-67
2021/01/28 23:21:09;;;;;;;1999.90;999.90;;;;;;;2.19;93.82;96670.81;4871354;29;20079;-66
2021/01/28 23:23:35;;;;;;;1999.90;999.90;;;;;;;2.14;94.75;96674.50;4868723;29;20055;-65
2021/01/28 23:26:02;;;;;;;1999.90;999.90;;;;;;;2.27;94.08;96673.63;4871281;29;20063;-65
2021/01/28 23:28:29;;;;;;;1999.90;999.90;;;;;;;2.11;95.17;96675.94;4871973;29;20049;-65
2021/01/28 23:30:56;;;;;;;1999.90;999.90;;;;;;;2.02;95.58;96677.78;4870724;29;20683;-65
2021/01/28 23:33:23;;;;;;;1999.90;999.90;;;;;;;2.23;94.52;96674.56;4878761;29;20129;-64
2021/01/28 23:35:50;;;;;;;1999.90;999.90;;;;;;;2.23;94.00;96677.28;4871951;29;20057;-65
2021/01/28 23:38:17;;;;;;;1999.90;999.90;;;;;;;2.54;93.29;96668.28;4871878;29;20045;-64
2021/01/28 23:40:43;;;;;;;1999.90;999.90;;;;;;;2.45;92.82;96669.03;4871897;29;20081;-64
2021/01/28 23:43:13;;;;;;;1999.90;999.90;;;;;;;2.59;92.57;96676.34;4871216;29;20053;-65
2021/01/28 23:45:40;;;;;;;1999.90;999.90;;;;;;;2.41;92.93;96657.19;4871441;29;20061;-65
2021/01/28 23:48:08;;;;;;;1999.90;999.90;;;;;;;2.36;93.03;96654.56;4871004;29;20057;-64
2021/01/28 23:50:34;;;;;;;1999.90;999.90;;;;;;;2.26;93.49;96652.09;4871707;29;20076;-64
2021/01/28 23:53:00;;;;;;;1999.90;999.90;;;;;;;2.45;93.22;96652.69;4870639;29;20061;-64
2021/01/28 23:55:27;;;;;;;1999.90;999.90;;;;;;;2.55;92.37;96646.16;4866577;29;20081;-64
2021/01/28 23:57:54;;;;;;;1999.90;999.90;;;;;;;2.68;92.32;96644.44;4871807;29;20057;-64
